createdAt,value
2023-05-14T00:02:10.484Z,99054.30
2023-05-14T00:09:13.163Z,99052.36
2023-05-14T00:16:05.530Z,99041.55
2023-05-14T00:29:52.996Z,99030.16
2023-05-14T00:36:46.804Z,99028.05
2023-05-14T00:43:49.428Z,99027.02
2023-05-14T00:50:42.488Z,99036.64
2023-05-14T00:57:41.402Z,99033.85
2023-05-14T01:04:19.130Z,99037.62
2023-05-14T01:11:29.538Z,99039.23
2023-05-14T01:18:30.302Z,99034.48
2023-05-14T01:25:32.775Z,99031.79
2023-05-14T01:32:35.812Z,99036.35
2023-05-14T01:39:38.718Z,99036.20
2023-05-14T01:46:29.133Z,99033.16
2023-05-14T01:53:15.115Z,99032.58
2023-05-14T02:00:03.787Z,99022.13
2023-05-14T02:06:57.177Z,99019.05
2023-05-14T02:13:44.657Z,99013.52
2023-05-14T02:20:47.307Z,99013.70
2023-05-14T02:27:34.631Z,99012.29
2023-05-14T02:34:37.331Z,99002.40
2023-05-14T02:41:33.241Z,99000.25
2023-05-14T02:48:31.966Z,98992.18
2023-05-14T02:55:34.546Z,98979.52
2023-05-14T03:02:22.101Z,98980.16
2023-05-14T03:08:58.081Z,98973.30
2023-05-14T03:16:00.498Z,98966.67
2023-05-14T03:22:37.019Z,98964.96
2023-05-14T03:29:17.194Z,98960.98
2023-05-14T03:35:42.209Z,98962.88
2023-05-14T03:42:10.614Z,98958.70
2023-05-14T03:49:03.644Z,98959.85
2023-05-14T03:55:48.653Z,98961.17
2023-05-14T04:02:41.099Z,98957.65
2023-05-14T04:09:33.540Z,98964.30
2023-05-14T04:16:36.331Z,98969.22
2023-05-14T04:30:24.288Z,98958.95
2023-05-14T04:37:27.176Z,98955.16
2023-05-14T04:44:29.957Z,98949.83
2023-05-14T04:51:34.068Z,98956.39
2023-05-14T04:58:27.840Z,98959.81
2023-05-14T05:05:30.569Z,98953.38
2023-05-14T05:12:30.538Z,98958.31
2023-05-14T05:19:35.625Z,98960.38
2023-05-14T05:26:02.713Z,98949.98
2023-05-14T05:32:52.754Z,98951.81
2023-05-14T05:39:17.813Z,98947.52
2023-05-14T05:46:20.772Z,98949.25
2023-05-14T05:52:40.041Z,98957.77
2023-05-14T05:59:35.360Z,98960.05
2023-05-14T06:06:27.055Z,98956.11
2023-05-14T06:13:10.957Z,98944.30
2023-05-14T06:20:13.662Z,98940.84
2023-05-14T06:26:55.668Z,98942.71
2023-05-14T06:33:14.363Z,98932.90
2023-05-14T06:39:44.774Z,98933.52
2023-05-14T06:46:23.136Z,98934.16
2023-05-14T06:52:01.532Z,98938.34
2023-05-14T06:58:42.582Z,98932.25
2023-05-14T07:05:12.141Z,98934.76
2023-05-14T07:12:08.180Z,98935.31
2023-05-14T07:19:11.175Z,98937.91
2023-05-14T07:26:13.617Z,98939.55
2023-05-14T07:33:16.261Z,98938.13
2023-05-14T07:40:01.934Z,98945.82
2023-05-14T07:46:49.343Z,98935.75
2023-05-14T07:53:48.641Z,98933.02
2023-05-14T08:00:51.424Z,98925.04
2023-05-14T08:07:09.288Z,98910.23
2023-05-14T08:13:32.034Z,98899.42
2023-05-14T08:19:15.442Z,98891.30
2023-05-14T08:25:52.033Z,98881.15
2023-05-14T08:32:26.475Z,98873.73
2023-05-14T08:38:34.692Z,98871.45
2023-05-14T08:44:50.838Z,98867.07
2023-05-14T08:50:35.726Z,98862.68
2023-05-14T08:57:30.863Z,98853.35
2023-05-14T09:04:32.373Z,98840.84
2023-05-14T09:10:46.835Z,98839.88
2023-05-14T09:17:22.889Z,98833.64
2023-05-14T09:23:55.785Z,98833.95
2023-05-14T09:31:03.955Z,98836.64
2023-05-14T09:44:23.377Z,98835.55
2023-05-14T09:50:44.666Z,98827.45
2023-05-14T09:57:17.117Z,98823.41
2023-05-14T10:03:28.751Z,98820.02
2023-05-14T10:09:51.483Z,98800.73
2023-05-14T10:15:45.092Z,98789.20
2023-05-14T10:22:21.895Z,98786.46
2023-05-14T10:29:24.687Z,98777.74
2023-05-14T10:36:31.834Z,98766.14
2023-05-14T10:43:34.510Z,98761.09
2023-05-14T10:50:20.181Z,98762.79
2023-05-14T10:56:27.072Z,98758.92
2023-05-14T11:03:36.042Z,98761.23
2023-05-14T11:10:03.529Z,98764.95
2023-05-14T11:17:05.537Z,98756.56
2023-05-14T11:23:43.835Z,98748.05
2023-05-14T11:29:48.874Z,98742.80
2023-05-14T11:35:45.786Z,98744.36
2023-05-14T11:42:38.479Z,98750.52
2023-05-14T11:48:41.753Z,98734.49
2023-05-14T11:54:54.622Z,98724.56
2023-05-14T12:01:56.951Z,98707.31
2023-05-14T12:08:15.564Z,98709.28
2023-05-14T12:14:55.553Z,98702.46
2023-05-14T12:21:18.093Z,98697.10
2023-05-14T12:27:39.282Z,98684.13
2023-05-14T12:34:31.947Z,98676.58
2023-05-14T12:41:26.720Z,98670.76
2023-05-14T12:53:11.489Z,98659.13
2023-05-14T12:59:33.349Z,98648.30
2023-05-14T13:05:54.895Z,98633.73
2023-05-14T13:11:16.937Z,98636.30
2023-05-14T13:17:18.906Z,98633.77
2023-05-14T13:30:05.845Z,98617.61
2023-05-14T13:36:40.304Z,98607.02
2023-05-14T13:42:49.200Z,98594.34
2023-05-14T13:49:32.371Z,98591.16
2023-05-14T13:56:17.902Z,98568.57
2023-05-14T14:03:21.292Z,98558.38
2023-05-14T14:10:04.459Z,98566.55
2023-05-14T14:16:48.998Z,98551.23
2023-05-14T14:23:18.889Z,98533.25
2023-05-14T14:29:44.789Z,98530.49
2023-05-14T14:36:48.356Z,98529.89
2023-05-14T14:43:52.554Z,98519.17
2023-05-14T14:50:55.997Z,98498.06
2023-05-14T14:57:59.670Z,98489.43
2023-05-14T15:04:38.670Z,98462.54
2023-05-14T15:10:37.748Z,98459.10
2023-05-14T15:16:57.530Z,98461.98
2023-05-14T15:23:02.649Z,98456.41
2023-05-14T15:28:43.239Z,98454.42
2023-05-14T15:33:56.908Z,98442.33
2023-05-14T15:39:10.270Z,98437.57
2023-05-14T15:45:04.976Z,98429.64
2023-05-14T15:50:56.474Z,98429.13
2023-05-14T15:57:38.710Z,98422.34
2023-05-14T16:05:08.029Z,98404.98
2023-05-14T16:11:33.810Z,98402.84
2023-05-14T16:17:13.229Z,98400.27
2023-05-14T16:23:34.286Z,98392.13
2023-05-14T16:29:26.965Z,98390.52
2023-05-14T16:35:03.227Z,98385.40
2023-05-14T16:41:09.820Z,98383.94
2023-05-14T16:46:22.217Z,98388.39
2023-05-14T16:51:24.325Z,98406.58
2023-05-14T16:56:26.619Z,98409.80
2023-05-14T17:02:28.448Z,98391.98
2023-05-14T17:08:50.183Z,98372.11
2023-05-14T17:15:24.328Z,98361.17
2023-05-14T17:20:46.354Z,98356.45
2023-05-14T17:25:48.345Z,98345.25
2023-05-14T17:30:51.392Z,98339.04
2023-05-14T17:35:53.318Z,98341.84
2023-05-14T17:41:55.245Z,98337.91
2023-05-14T17:48:16.781Z,98353.04
2023-05-14T18:00:00.067Z,98402.02
2023-05-14T18:06:35.699Z,98413.59
2023-05-14T18:13:41.633Z,98425.78
2023-05-14T18:20:45.167Z,98426.71
2023-05-14T18:27:45.861Z,98423.03
2023-05-14T18:34:34.936Z,98407.27
2023-05-14T18:41:38.271Z,98402.55
2023-05-14T18:48:41.999Z,98395.80
2023-05-14T18:55:45.257Z,98400.40
2023-05-14T19:07:49.278Z,98405.63
2023-05-14T19:12:51.156Z,98410.07
2023-05-14T19:17:54.651Z,98420.29
2023-05-14T19:23:56.260Z,98423.31
2023-05-14T19:30:17.831Z,98428.11
2023-05-14T19:36:39.378Z,98433.80
2023-05-14T19:43:00.918Z,98432.13
2023-05-14T19:49:22.443Z,98432.66
2023-05-14T19:55:44.044Z,98430.39
2023-05-14T20:02:05.664Z,98435.77
2023-05-14T20:08:27.190Z,98435.08
2023-05-14T20:14:48.737Z,98433.35
2023-05-14T20:21:10.551Z,98418.99
2023-05-14T20:27:42.165Z,98404.58
2023-05-14T20:34:03.748Z,98378.77
2023-05-14T20:40:25.331Z,98351.75
2023-05-14T20:46:47.052Z,98325.00
2023-05-14T20:53:08.525Z,98303.41
2023-05-14T20:58:30.281Z,98273.94
2023-05-14T21:03:32.126Z,98254.23
2023-05-14T21:09:33.861Z,98244.89
2023-05-14T21:15:56.554Z,98229.78
2023-05-14T21:22:18.220Z,98221.11
2023-05-14T21:28:39.692Z,98211.92
2023-05-14T21:35:01.373Z,98213.14
2023-05-14T21:40:23.612Z,98207.33
2023-05-14T21:45:26.418Z,98198.48
2023-05-14T21:50:29.385Z,98192.86
2023-05-14T21:55:31.734Z,98178.27
2023-05-14T22:00:33.811Z,98171.45
2023-05-14T22:05:35.671Z,98158.63
2023-05-14T22:10:37.586Z,98155.80
2023-05-14T22:16:59.202Z,98152.45
2023-05-14T22:23:20.894Z,98143.61
2023-05-14T22:29:42.417Z,98135.74
2023-05-14T22:36:04.025Z,98121.58
2023-05-14T22:42:25.510Z,98132.34
2023-05-14T22:47:47.177Z,98128.23
2023-05-14T22:52:48.934Z,98114.45
2023-05-14T22:57:50.890Z,98089.24
2023-05-14T23:02:52.728Z,98074.52
2023-05-14T23:07:55.437Z,98069.62
2023-05-14T23:12:57.875Z,98063.29
2023-05-14T23:18:59.514Z,98050.77
2023-05-14T23:24:22.264Z,98047.61
2023-05-14T23:30:23.939Z,98043.76
2023-05-14T23:36:45.528Z,98040.13
2023-05-14T23:42:07.773Z,98035.20
2023-05-14T23:47:10.762Z,98022.98
2023-05-14T23:52:12.708Z,98008.39
2023-05-14T23:57:15.275Z,97996.94
